Time;durP1;ratioP1;P1;durP2;ratioP2;P2;SDS_P1;SDS_P2;PMS_P1;PMS_P2;Temp;Humidity;BMP_temperature;BMP_pressure;BME280_temperature;BME280_humidity;BME280_pressure;Samples;Min_cycle;Max_cycle;Signal;HPM_P1;HPM_P2
2022/11/03 00:00:28;;;;;;;9.13;2.50;;;;;;;11.79;43.01;101699.84;7391525;19;20391;-65
2022/11/03 00:02:54;;;;;;;11.13;2.60;;;;;;;11.73;42.86;101700.34;7394025;19;20003;-65
2022/11/03 00:08:04;;;;;;;6.80;1.85;;;;;;;11.71;43.30;101695.19;7393597;19;20016;-65
2022/11/03 00:10:29;;;;;;;8.63;2.17;;;;;;;11.55;43.63;101686.72;7393714;19;20435;-64
2022/11/03 00:12:55;;;;;;;9.10;2.35;;;;;;;11.70;43.16;101679.91;7393908;19;20010;-65
2022/11/03 00:15:21;;;;;;;11.88;2.35;;;;;;;11.63;43.22;101680.41;7394369;19;19999;-65
2022/11/03 00:17:50;;;;;;;12.43;2.38;;;;;;;11.58;43.42;101671.59;7393389;19;19998;-64
2022/11/03 00:20:16;;;;;;;9.35;2.03;;;;;;;11.63;43.27;101674.94;7393446;19;20018;-64
2022/11/03 00:22:42;;;;;;;12.00;2.55;;;;;;;11.85;42.89;101665.72;7393340;19;19991;-64
2022/11/03 00:25:08;;;;;;;8.95;1.98;;;;;;;11.97;42.68;101656.00;7393267;19;20005;-64
2022/11/03 00:27:33;;;;;;;11.02;2.17;;;;;;;12.03;42.56;101658.22;7392102;19;19999;-64
2022/11/03 00:29:59;;;;;;;10.18;2.03;;;;;;;12.03;42.48;101660.19;7392137;19;19991;-64
2022/11/03 00:32:24;;;;;;;9.20;1.98;;;;;;;11.73;43.28;101657.38;7393089;19;20002;-68
2022/11/03 00:34:50;;;;;;;13.10;2.63;;;;;;;11.92;42.78;101648.78;7392687;19;19999;-70
2022/11/03 00:37:16;;;;;;;10.80;2.28;;;;;;;11.95;42.66;101648.13;7394000;19;20015;-62
2022/11/03 00:39:41;;;;;;;13.70;2.20;;;;;;;11.85;42.72;101657.50;7388550;19;20006;-65
2022/11/03 00:42:07;;;;;;;11.70;2.00;;;;;;;11.87;42.86;101648.97;7391245;19;20494;-63
2022/11/03 00:44:32;;;;;;;10.40;2.80;;;;;;;11.94;43.08;101645.72;7392608;19;19999;-63
2022/11/03 00:46:58;;;;;;;12.15;2.58;;;;;;;11.65;43.41;101644.53;7390975;19;20002;-67
2022/11/03 00:49:23;;;;;;;13.10;2.40;;;;;;;11.71;43.30;101631.50;7387036;19;20078;-67
2022/11/03 00:51:49;;;;;;;10.45;2.20;;;;;;;11.68;43.50;101627.50;7391871;19;20011;-66
2022/11/03 00:54:14;;;;;;;15.30;2.40;;;;;;;11.80;43.42;101630.31;7391707;19;19999;-66
2022/11/03 00:56:41;;;;;;;13.68;2.10;;;;;;;12.02;42.55;101623.81;7391068;19;20002;-66
2022/11/03 00:59:08;;;;;;;11.02;2.13;;;;;;;11.99;42.71;101631.84;7390728;19;20006;-67
2022/11/03 01:01:39;;;;;;;8.43;1.85;;;;;;;12.00;42.51;101636.19;7392243;19;20066;-66
2022/11/03 01:06:55;;;;;;;9.75;1.92;;;;;;;11.98;42.75;101635.75;7388839;19;20011;-67
2022/11/03 01:09:22;;;;;;;10.32;1.95;;;;;;;11.97;42.93;101623.19;7396174;19;20013;-67
2022/11/03 01:12:12;;;;;;;12.13;2.10;;;;;;;11.91;43.21;101619.06;7391686;19;20009;-66
2022/11/03 01:14:43;;;;;;;10.40;2.22;;;;;;;11.78;43.30;101613.44;7391546;19;20017;-67
2022/11/03 01:17:17;;;;;;;9.23;2.22;;;;;;;11.82;43.23;101611.66;7390912;19;20002;-67
2022/11/03 01:19:43;;;;;;;10.00;2.30;;;;;;;11.78;43.49;101609.91;7390171;19;20009;-67
2022/11/03 01:22:09;;;;;;;7.68;1.88;;;;;;;11.65;43.51;101611.72;7391007;19;20395;-67
2022/11/03 01:24:35;;;;;;;9.43;1.83;;;;;;;11.59;43.62;101607.56;7392315;19;20006;-67
2022/11/03 01:27:01;;;;;;;13.73;1.92;;;;;;;11.82;43.28;101605.38;7390001;19;20010;-67
2022/11/03 01:29:27;;;;;;;10.93;2.05;;;;;;;11.78;43.26;101610.69;7389619;19;19999;-66
2022/11/03 01:31:52;;;;;;;15.23;2.70;;;;;;;11.81;43.05;101607.31;7390922;19;20029;-67
2022/11/03 01:34:20;;;;;;;10.02;1.77;;;;;;;11.87;43.11;101613.41;7391890;19;20045;-67
2022/11/03 01:36:46;;;;;;;17.45;2.20;;;;;;;11.89;43.07;101610.34;7390667;19;20002;-67
2022/11/03 01:39:14;;;;;;;9.90;2.15;;;;;;;11.80;43.18;101613.09;7390005;19;20003;-67
2022/11/03 01:41:41;;;;;;;10.18;2.00;;;;;;;11.69;43.69;101607.22;7390565;19;20014;-67
2022/11/03 01:44:06;;;;;;;11.23;2.15;;;;;;;11.76;43.56;101612.97;7391135;19;19999;-67
2022/11/03 01:46:43;;;;;;;9.45;1.77;;;;;;;11.89;43.28;101610.34;7389479;19;20007;-67
2022/11/03 01:49:16;;;;;;;10.13;2.38;;;;;;;11.85;43.13;101605.53;7389063;19;20014;-66
2022/11/03 01:51:46;;;;;;;9.75;1.98;;;;;;;11.95;43.12;101598.09;7387889;19;20502;-67
2022/11/03 01:54:17;;;;;;;10.35;2.28;;;;;;;11.91;43.34;101592.50;7390354;19;19995;-66
2022/11/03 01:56:47;;;;;;;9.07;1.80;;;;;;;11.94;43.24;101597.31;7391329;19;20019;-66
2022/11/03 01:59:15;;;;;;;9.45;1.65;;;;;;;11.93;43.13;101594.91;7387525;19;20066;-66
2022/11/03 02:01:42;;;;;;;9.63;2.22;;;;;;;11.81;43.63;101579.16;7397613;19;19999;-66
2022/11/03 02:04:16;;;;;;;11.95;2.10;;;;;;;11.90;43.22;101573.66;7397102;19;20010;-66
2022/11/03 02:06:42;;;;;;;10.18;2.00;;;;;;;11.77;43.65;101561.81;7396363;19;20055;-66
2022/11/03 02:09:09;;;;;;;9.15;2.13;;;;;;;11.63;43.67;101553.84;7395017;19;20002;-66
2022/11/03 02:14:21;;;;;;;8.85;1.95;;;;;;;11.74;43.60;101551.50;7397557;19;20001;-67
2022/11/03 02:16:55;;;;;;;9.63;1.85;;;;;;;11.68;43.48;101545.44;7397604;19;20458;-67
2022/11/03 02:19:39;;;;;;;9.98;2.42;;;;;;;11.72;43.57;101545.59;7393270;19;19995;-67
2022/11/03 02:22:42;;;;;;;7.38;1.95;;;;;;;11.71;43.62;101533.06;7397763;19;20074;-66
2022/11/03 02:25:14;;;;;;;10.82;1.83;;;;;;;11.76;43.63;101530.94;7395929;19;19995;-66
2022/11/03 02:27:39;;;;;;;9.98;1.88;;;;;;;11.66;43.50;101532.09;7395287;19;20010;-66
2022/11/03 02:30:07;;;;;;;10.50;1.80;;;;;;;11.61;44.03;101517.84;7396824;19;19999;-67
2022/11/03 02:32:44;;;;;;;10.05;1.77;;;;;;;11.74;43.45;101524.16;7397815;19;19995;-66
2022/11/03 02:35:32;;;;;;;8.80;1.67;;;;;;;11.70;43.47;101526.78;7397341;19;19999;-66
2022/11/03 02:38:02;;;;;;;12.20;1.90;;;;;;;11.67;43.77;101521.97;7396866;19;20092;-66
2022/11/03 02:40:39;;;;;;;8.48;2.10;;;;;;;11.39;44.33;101511.53;7394224;19;19998;-66
2022/11/03 02:43:06;;;;;;;8.65;1.80;;;;;;;11.52;43.66;101508.88;7397318;19;19995;-66
2022/11/03 02:45:32;;;;;;;8.45;1.90;;;;;;;11.56;43.92;101516.09;7396313;19;20011;-66
2022/11/03 02:48:00;;;;;;;7.47;1.70;;;;;;;11.40;44.21;101513.09;7395866;19;20337;-66
2022/11/03 02:50:28;;;;;;;12.98;2.30;;;;;;;11.45;43.83;101515.66;7394421;19;20630;-66
2022/11/03 02:52:54;;;;;;;10.05;2.00;;;;;;;11.67;43.70;101506.38;7397338;19;20074;-66
2022/11/03 02:55:51;;;;;;;8.32;1.83;;;;;;;11.55;44.08;101508.22;7396553;19;20356;-66
2022/11/03 02:58:56;;;;;;;7.70;1.90;;;;;;;11.58;43.53;101500.16;7395387;19;20029;-66
2022/11/03 03:01:47;;;;;;;;;;;;;;;11.58;43.54;101502.88;7396648;19;19995;-66
2022/11/03 03:04:30;;;;;;;9.30;1.67;;;;;;;11.68;43.62;101504.44;7395500;19;19914;-67
2022/11/03 03:07:01;;;;;;;9.00;2.03;;;;;;;11.64;43.41;101507.03;7394840;19;19995;-66
2022/11/03 03:09:53;;;;;;;11.27;1.88;;;;;;;11.62;43.66;101500.28;7393648;19;20141;-67
2022/11/03 03:12:20;;;;;;;9.48;2.10;;;;;;;11.64;43.52;101495.31;7395416;19;20013;-66
2022/11/03 03:14:49;;;;;;;8.70;1.70;;;;;;;11.49;44.00;101500.19;7395639;19;20334;-66
2022/11/03 03:17:22;;;;;;;9.60;2.00;;;;;;;11.42;44.09;101483.53;7394497;19;20345;-66
2022/11/03 03:19:51;;;;;;;;;;;;;;;11.59;43.47;101488.09;7394433;19;20017;-67
2022/11/03 03:22:23;;;;;;;13.05;2.00;;;;;;;11.58;43.72;101485.69;7393969;19;19952;-68
2022/11/03 03:25:14;;;;;;;11.10;1.85;;;;;;;11.49;43.87;101489.25;7395045;19;20005;-68
2022/11/03 03:27:45;;;;;;;11.63;1.98;;;;;;;11.52;43.86;101476.06;7394950;19;20058;-66
2022/11/03 03:30:11;;;;;;;11.50;1.77;;;;;;;11.57;43.75;101467.66;7394108;19;20061;-67
2022/11/03 03:32:43;;;;;;;12.00;1.92;;;;;;;11.54;43.87;101457.38;7396270;19;20450;-67
2022/11/03 03:35:17;;;;;;;10.80;2.10;;;;;;;11.52;43.72;101460.44;7393128;19;20091;-67
2022/11/03 03:37:47;;;;;;;11.20;2.22;;;;;;;11.42;44.05;101463.56;7394700;19;20017;-66
2022/11/03 03:40:20;;;;;;;9.55;2.25;;;;;;;11.42;43.94;101464.41;7393401;19;19995;-66
2022/11/03 03:42:47;;;;;;;9.07;2.28;;;;;;;11.41;43.93;101465.50;7393749;19;19998;-65
2022/11/03 03:45:21;;;;;;;11.73;1.70;;;;;;;11.45;43.93;101466.44;7392364;19;20386;-67
2022/11/03 03:47:47;;;;;;;10.13;2.00;;;;;;;11.42;43.99;101456.19;7394994;19;20014;-67
2022/11/03 03:50:12;;;;;;;9.60;2.03;;;;;;;11.37;44.05;101448.19;7391603;19;20466;-67
2022/11/03 03:52:38;;;;;;;11.07;2.00;;;;;;;11.44;44.02;101442.19;7392223;19;20010;-68
2022/11/03 03:55:13;;;;;;;7.97;1.90;;;;;;;11.48;43.79;101443.91;7392639;19;20463;-65
2022/11/03 03:57:38;;;;;;;10.43;1.80;;;;;;;11.43;44.08;101444.13;7394448;19;19999;-65
2022/11/03 04:00:05;;;;;;;10.68;2.50;;;;;;;11.34;44.16;101443.38;7393724;19;20002;-65
2022/11/03 04:02:30;;;;;;;9.85;2.15;;;;;;;11.28;44.35;101439.22;7394749;19;20003;-68
2022/11/03 04:04:57;;;;;;;8.48;1.88;;;;;;;11.30;44.24;101431.50;7391235;19;20040;-67
2022/11/03 04:10:07;;;;;;;;;;;;;;;11.29;44.31;101438.09;7390244;19;19995;-64
2022/11/03 04:23:50;;;;;;;10.73;2.13;;;;;;;11.23;44.63;101431.22;7390713;19;20014;-62
2022/11/03 04:26:17;;;;;;;10.73;2.03;;;;;;;11.29;44.42;101427.19;7392106;19;20023;-62
2022/11/03 04:28:44;;;;;;;11.18;2.20;;;;;;;11.23;44.44;101431.22;7393155;19;20002;-64
2022/11/03 04:31:15;;;;;;;10.98;2.00;;;;;;;11.11;45.01;101429.19;7391795;19;20011;-63
2022/11/03 04:33:41;;;;;;;11.02;2.00;;;;;;;10.90;45.74;101424.50;7390960;19;20316;-63
2022/11/03 04:36:23;;;;;;;10.15;1.98;;;;;;;11.16;44.88;101425.47;7393657;19;20002;-63
2022/11/03 04:38:50;;;;;;;13.25;2.38;;;;;;;11.23;44.95;101420.28;7392053;19;20309;-63
2022/11/03 04:41:29;;;;;;;6.47;1.80;;;;;;;11.22;44.89;101416.78;7391654;19;20040;-63
2022/11/03 04:43:55;;;;;;;13.52;2.15;;;;;;;11.32;44.68;101417.50;7393382;19;20022;-63
2022/11/03 04:46:26;;;;;;;8.27;2.05;;;;;;;11.26;44.80;101430.56;7391322;19;19998;-62
2022/11/03 04:48:54;;;;;;;9.15;1.70;;;;;;;11.16;45.06;101414.56;7390317;19;20035;-63
2022/11/03 04:51:24;;;;;;;10.57;1.95;;;;;;;11.11;45.46;101419.06;7390527;19;20006;-63
2022/11/03 04:54:11;;;;;;;10.45;1.77;;;;;;;11.23;45.12;101414.81;7391137;19;20495;-62
2022/11/03 04:56:36;;;;;;;8.85;1.60;;;;;;;11.32;44.91;101404.63;7392331;19;20003;-63
2022/11/03 04:59:02;;;;;;;10.48;2.15;;;;;;;11.22;44.96;101405.00;7392786;19;20326;-62
2022/11/03 05:01:28;;;;;;;8.48;2.00;;;;;;;11.29;45.21;101400.63;7389037;19;20003;-61
2022/11/03 05:03:54;;;;;;;10.68;2.20;;;;;;;11.30;45.26;101399.53;7391585;19;20513;-61
2022/11/03 05:06:22;;;;;;;8.35;1.92;;;;;;;11.39;44.89;101402.19;7390118;19;20002;-62
2022/11/03 05:09:23;;;;;;;11.20;1.95;;;;;;;11.32;45.35;101396.44;7392348;19;20070;-63
2022/11/03 05:11:49;;;;;;;7.00;2.03;;;;;;;11.41;45.14;101394.44;7386396;19;20066;-61
2022/11/03 05:14:30;;;;;;;12.30;2.40;;;;;;;11.48;44.78;101394.72;7389268;19;20026;-62
2022/11/03 05:17:26;;;;;;;9.57;2.17;;;;;;;11.46;45.22;101385.25;7392876;19;20346;-62
2022/11/03 05:20:00;;;;;;;9.05;2.30;;;;;;;11.40;45.45;101386.56;7389768;19;20038;-62
2022/11/03 05:22:34;;;;;;;13.23;2.22;;;;;;;11.10;45.94;101379.22;7389675;19;20044;-62
2022/11/03 05:25:22;;;;;;;9.43;2.00;;;;;;;11.26;45.52;101378.66;7391713;19;20023;-62
2022/11/03 05:27:47;;;;;;;15.95;2.50;;;;;;;11.32;45.61;101374.56;7391180;19;20447;-62
2022/11/03 05:30:14;;;;;;;10.85;2.53;;;;;;;11.35;45.59;101368.44;7390393;19;20018;-62
2022/11/03 05:32:39;;;;;;;11.27;2.15;;;;;;;11.47;45.21;101365.78;7391140;19;20002;-63
2022/11/03 05:35:18;;;;;;;11.18;2.22;;;;;;;11.37;45.73;101358.00;7388914;19;20377;-63
2022/11/03 05:37:43;;;;;;;8.05;1.77;;;;;;;11.36;45.66;101352.84;7390922;19;19998;-63
2022/11/03 05:40:24;;;;;;;11.05;2.03;;;;;;;11.50;45.31;101350.66;7388208;19;20073;-63
2022/11/03 05:42:55;;;;;;;8.35;1.85;;;;;;;11.57;45.17;101344.63;7388409;19;19991;-63
2022/11/03 05:45:33;;;;;;;14.10;2.63;;;;;;;11.57;45.21;101345.47;7390025;19;20534;-63
2022/11/03 05:48:00;;;;;;;10.35;2.22;;;;;;;11.55;45.48;101347.69;7390267;19;19995;-63
2022/11/03 05:50:29;;;;;;;13.40;2.45;;;;;;;11.59;45.40;101345.91;7390260;19;19999;-62
2022/11/03 05:52:59;;;;;;;8.82;2.38;;;;;;;11.55;45.43;101338.72;7388514;19;19999;-62
2022/11/03 05:55:34;;;;;;;7.65;2.38;;;;;;;11.54;45.72;101331.63;7391549;19;19998;-62
2022/11/03 05:58:11;;;;;;;8.45;2.35;;;;;;;11.54;45.28;101337.09;7389501;19;19994;-62
2022/11/03 06:00:40;;;;;;;12.77;2.30;;;;;;;11.59;45.39;101339.63;7389339;19;20007;-63
2022/11/03 06:03:08;;;;;;;9.85;2.00;;;;;;;11.57;45.44;101333.69;7390199;19;19998;-62
2022/11/03 06:05:34;;;;;;;9.98;2.30;;;;;;;11.49;45.87;101329.94;7388266;19;19998;-62
2022/11/03 06:08:06;;;;;;;10.98;2.00;;;;;;;11.49;45.76;101333.44;7389111;19;20105;-62
2022/11/03 06:10:50;;;;;;;10.10;2.00;;;;;;;11.51;45.53;101321.38;7387890;19;19995;-63
2022/11/03 06:13:25;;;;;;;8.35;2.15;;;;;;;11.42;45.88;101324.19;7390520;19;20010;-63
2022/11/03 06:15:59;;;;;;;11.98;1.85;;;;;;;11.39;46.05;101324.84;7389747;19;20066;-63
2022/11/03 06:18:32;;;;;;;9.32;2.60;;;;;;;11.45;46.00;101318.84;7390177;19;20367;-63
2022/11/03 06:21:06;;;;;;;10.63;2.60;;;;;;;11.47;46.16;101318.50;7386137;19;20038;-62
2022/11/03 06:23:34;;;;;;;10.88;2.35;;;;;;;11.43;45.80;101312.91;7388585;19;20002;-62
2022/11/03 06:26:02;;;;;;;10.32;1.80;;;;;;;11.40;45.85;101310.06;7388413;19;19999;-62
2022/11/03 06:28:35;;;;;;;9.63;2.30;;;;;;;11.42;46.08;101316.78;7390614;19;20005;-61
2022/11/03 06:31:11;;;;;;;12.88;2.08;;;;;;;11.35;46.15;101313.00;7386758;19;20471;-61
2022/11/03 06:33:36;;;;;;;12.20;2.17;;;;;;;11.40;46.18;101310.84;7389543;19;20007;-62
2022/11/03 06:36:15;;;;;;;10.27;2.33;;;;;;;11.32;46.38;101306.25;7388823;19;20031;-61
2022/11/03 06:38:40;;;;;;;9.07;2.35;;;;;;;11.44;46.07;101305.53;7388795;19;19999;-62
2022/11/03 06:41:19;;;;;;;9.95;2.03;;;;;;;11.48;46.24;101301.78;7387281;19;20006;-62
2022/11/03 06:43:45;;;;;;;9.00;1.90;;;;;;;11.47;46.09;101297.47;7388560;19;20003;-63
2022/11/03 06:46:18;;;;;;;10.00;2.22;;;;;;;11.42;46.21;101297.66;7388766;19;20442;-63
2022/11/03 06:48:44;;;;;;;10.80;2.45;;;;;;;11.42;46.14;101288.63;7396508;19;20018;-63
2022/11/03 06:51:20;;;;;;;12.57;2.45;;;;;;;11.43;46.38;101293.78;7393538;19;20474;-63
2022/11/03 06:53:48;;;;;;;9.18;2.30;;;;;;;11.35;46.40;101286.44;7396470;19;19999;-63
2022/11/03 06:56:35;;;;;;;11.02;3.05;;;;;;;11.44;46.73;101284.44;7397009;19;20080;-62
2022/11/03 06:59:04;;;;;;;11.63;2.42;;;;;;;11.46;46.37;101287.66;7396904;19;20007;-62
2022/11/03 07:01:32;;;;;;;9.88;2.17;;;;;;;11.48;46.48;101284.56;7393510;19;20003;-64
2022/11/03 07:04:05;;;;;;;7.55;1.73;;;;;;;11.49;46.54;101286.19;7395590;19;20002;-64
2022/11/03 07:06:35;;;;;;;11.98;2.53;;;;;;;11.55;46.40;101279.34;7394299;19;20046;-64
2022/11/03 07:09:04;;;;;;;10.07;2.28;;;;;;;11.33;46.92;101277.78;7396065;19;20006;-64
2022/11/03 07:11:35;;;;;;;11.00;2.30;;;;;;;11.36;46.90;101279.88;7393664;19;20010;-63
2022/11/03 07:14:13;;;;;;;10.73;2.45;;;;;;;11.36;47.01;101282.59;7395654;19;20118;-64
2022/11/03 07:16:43;;;;;;;12.60;2.65;;;;;;;11.51;46.41;101277.66;7395889;19;20054;-64
2022/11/03 07:19:22;;;;;;;11.23;2.13;;;;;;;11.45;47.08;101280.56;7394968;19;20005;-64
2022/11/03 07:22:24;;;;;;;14.10;2.42;;;;;;;11.48;46.65;101273.66;7393050;19;20007;-64
2022/11/03 07:24:53;;;;;;;12.48;2.40;;;;;;;11.62;46.16;101276.06;7396005;19;19994;-64
2022/11/03 07:27:28;;;;;;;11.45;2.92;;;;;;;11.66;46.70;101271.56;7392976;19;19998;-64
2022/11/03 07:30:04;;;;;;;8.82;1.98;;;;;;;11.61;46.62;101277.22;7394044;19;20062;-64
2022/11/03 07:32:32;;;;;;;10.00;2.47;;;;;;;11.69;46.39;101268.16;7395396;19;20384;-64
2022/11/03 07:35:19;;;;;;;17.00;2.47;;;;;;;11.82;46.25;101275.25;7395688;19;20013;-64
2022/11/03 07:37:49;;;;;;;9.20;2.15;;;;;;;11.84;46.26;101253.84;7395068;19;20030;-64
2022/11/03 07:40:21;;;;;;;8.98;2.70;;;;;;;11.91;46.27;101257.97;7393195;19;20005;-63
2022/11/03 07:42:47;;;;;;;8.77;2.00;;;;;;;11.98;46.22;101250.00;7394703;19;20082;-63
2022/11/03 07:45:41;;;;;;;16.20;2.15;;;;;;;11.98;46.19;101253.53;7392344;19;20107;-59
2022/11/03 07:48:45;;;;;;;9.80;2.45;;;;;;;12.06;46.01;101242.81;7393885;19;20002;-70
2022/11/03 07:51:15;;;;;;;13.18;3.42;;;;;;;12.09;46.15;101237.47;7389460;19;20470;-69
2022/11/03 07:53:46;;;;;;;13.38;2.38;;;;;;;12.09;46.18;101237.47;7394072;19;20450;-70
2022/11/03 07:56:18;;;;;;;10.38;2.45;;;;;;;12.07;46.16;101234.25;7394702;19;20078;-70
2022/11/03 07:58:45;;;;;;;13.55;2.60;;;;;;;12.09;46.18;101244.88;7395187;19;20103;-70
2022/11/03 08:01:31;;;;;;;10.82;2.30;;;;;;;12.09;46.29;101236.66;7392291;19;20040;-69
2022/11/03 08:04:09;;;;;;;9.60;2.60;;;;;;;12.18;46.10;101235.41;7393847;19;19998;-69
2022/11/03 08:06:34;;;;;;;10.15;2.78;;;;;;;12.16;46.02;101236.91;7391578;19;20001;-69
2022/11/03 08:09:00;;;;;;;9.50;2.22;;;;;;;12.08;46.36;101224.94;7395022;19;20014;-70
2022/11/03 08:11:25;;;;;;;8.93;1.98;;;;;;;12.18;45.89;101231.88;7393244;19;20010;-70
2022/11/03 08:13:52;;;;;;;11.18;2.40;;;;;;;12.29;45.94;101222.09;7394120;19;19991;-70
2022/11/03 08:16:18;;;;;;;12.50;3.05;;;;;;;12.30;45.87;101220.13;7393897;19;20002;-70
2022/11/03 08:18:44;;;;;;;11.18;2.70;;;;;;;12.37;45.86;101214.88;7392990;19;20018;-69
2022/11/03 08:21:10;;;;;;;13.65;2.70;;;;;;;12.32;46.00;101218.63;7392104;19;20005;-69
2022/11/03 08:23:36;;;;;;;8.85;1.98;;;;;;;12.42;45.88;101211.91;7393117;19;19991;-69
2022/11/03 08:26:02;;;;;;;10.40;2.70;;;;;;;12.51;45.76;101209.84;7393085;19;20021;-70
2022/11/03 08:28:28;;;;;;;10.65;2.40;;;;;;;12.50;46.00;101197.28;7390793;19;20012;-70
2022/11/03 08:30:54;;;;;;;10.45;2.45;;;;;;;12.50;45.89;101200.03;7389975;19;20021;-70
2022/11/03 08:33:19;;;;;;;8.00;2.22;;;;;;;12.50;46.00;101189.09;7392709;19;20398;-69
2022/11/03 08:35:45;;;;;;;17.95;3.00;;;;;;;12.37;46.24;101195.72;7393010;19;20002;-69
2022/11/03 08:38:11;;;;;;;12.65;2.53;;;;;;;12.35;46.19;101196.06;7390965;19;20427;-69
2022/11/03 08:40:36;;;;;;;9.00;2.35;;;;;;;12.36;46.47;101192.19;7392234;19;20016;-69
2022/11/03 08:43:02;;;;;;;11.05;2.67;;;;;;;12.52;45.91;101189.53;7392268;19;19998;-69
2022/11/03 08:45:31;;;;;;;10.05;2.22;;;;;;;12.46;46.20;101187.38;7391753;19;20010;-69
2022/11/03 08:47:57;;;;;;;7.72;1.77;;;;;;;12.63;45.88;101175.38;7392989;19;20007;-69
2022/11/03 08:50:23;;;;;;;12.60;2.50;;;;;;;12.75;45.66;101170.66;7390843;19;19990;-69
2022/11/03 08:52:48;;;;;;;8.35;2.08;;;;;;;12.88;45.35;101163.22;7391159;19;20407;-69
2022/11/03 08:55:14;;;;;;;8.85;2.67;;;;;;;12.87;45.37;101160.84;7392111;19;20182;-70
2022/11/03 08:57:40;;;;;;;12.73;2.70;;;;;;;12.93;45.55;101157.50;7391973;19;20078;-69
2022/11/03 09:00:06;;;;;;;15.43;2.85;;;;;;;12.99;45.19;101157.25;7391484;19;19990;-68
2022/11/03 09:02:32;;;;;;;8.10;2.33;;;;;;;13.10;45.09;101163.81;7392842;19;20002;-69
2022/11/03 09:05:00;;;;;;;10.48;2.25;;;;;;;13.18;45.03;101157.41;7391384;19;20475;-68
2022/11/03 09:07:26;;;;;;;10.38;2.55;;;;;;;13.25;44.93;101160.31;7391291;19;20002;-70
2022/11/03 09:09:52;;;;;;;12.88;2.40;;;;;;;13.12;45.26;101156.03;7388211;19;20006;-69
2022/11/03 09:12:18;;;;;;;10.85;2.17;;;;;;;12.68;46.19;101147.75;7389439;19;20027;-69
2022/11/03 09:14:43;;;;;;;8.48;2.47;;;;;;;12.94;45.82;101155.53;7390075;19;20466;-69
2022/11/03 09:17:09;;;;;;;10.50;2.22;;;;;;;13.11;45.39;101146.25;7391838;19;20470;-70
2022/11/03 09:19:35;;;;;;;13.13;2.80;;;;;;;13.19;45.54;101150.75;7389167;19;20006;-69
2022/11/03 09:22:01;;;;;;;12.40;2.90;;;;;;;13.34;45.11;101151.91;7388785;19;20014;-70
2022/11/03 09:24:26;;;;;;;11.75;2.45;;;;;;;13.30;45.06;101129.91;7391469;19;20011;-70
2022/11/03 09:26:52;;;;;;;12.30;2.33;;;;;;;13.35;44.86;101139.81;7387221;19;20042;-69
2022/11/03 09:29:18;;;;;;;10.88;2.53;;;;;;;13.35;45.26;101136.28;7391234;19;20062;-69
2022/11/03 09:31:46;;;;;;;14.10;2.53;;;;;;;13.31;45.23;101126.03;7388803;19;20014;-69
2022/11/03 09:34:13;;;;;;;11.60;2.15;;;;;;;13.31;45.27;101130.72;7392373;19;20018;-68
2022/11/03 09:36:39;;;;;;;11.00;2.08;;;;;;;13.52;44.96;101123.00;7391044;19;19999;-69
2022/11/03 09:39:04;;;;;;;10.35;2.22;;;;;;;13.51;44.61;101126.13;7390778;19;20012;-69
2022/11/03 09:41:31;;;;;;;10.85;2.25;;;;;;;13.58;44.69;101125.53;7388820;19;19994;-70
2022/11/03 09:43:59;;;;;;;10.77;2.63;;;;;;;13.45;44.96;101120.09;7390640;19;20023;-69
2022/11/03 09:46:27;;;;;;;12.30;2.33;;;;;;;13.55;44.85;101128.97;7389807;19;20030;-69
2022/11/03 09:48:53;;;;;;;12.68;3.03;;;;;;;13.51;44.72;101117.91;7390172;19;20359;-70
2022/11/03 09:51:20;;;;;;;11.98;2.67;;;;;;;13.68;44.64;101119.50;7389377;19;20007;-69
2022/11/03 09:53:49;;;;;;;8.30;2.22;;;;;;;13.73;44.61;101105.50;7387809;19;20007;-69
2022/11/03 09:56:24;;;;;;;10.88;1.85;;;;;;;13.68;44.33;101116.75;7391025;19;20352;-68
2022/11/03 09:58:50;;;;;;;10.90;2.10;;;;;;;13.57;44.76;101107.47;7390235;19;19995;-69
2022/11/03 10:01:16;;;;;;;15.90;3.17;;;;;;;13.72;44.42;101097.63;7387147;19;20026;-69
2022/11/03 10:03:42;;;;;;;11.10;1.98;;;;;;;13.64;44.46;101104.88;7390305;19;20002;-69
2022/11/03 10:06:08;;;;;;;9.95;2.20;;;;;;;13.70;44.46;101089.75;7387249;19;20026;-69
2022/11/03 10:08:40;;;;;;;10.93;2.28;;;;;;;13.58;44.46;101101.63;7390509;19;20006;-69
2022/11/03 10:11:08;;;;;;;9.43;2.42;;;;;;;13.52;44.46;101092.06;7383572;19;20014;-64
2022/11/03 10:13:37;;;;;;;9.52;1.95;;;;;;;13.89;43.92;101089.03;7390430;19;20458;-63
2022/11/03 10:16:06;;;;;;;9.80;2.05;;;;;;;14.03;43.65;101077.59;7388934;19;20002;-63
2022/11/03 10:18:33;;;;;;;8.18;2.00;;;;;;;14.14;43.30;101086.06;7390888;19;20007;-64
2022/11/03 10:21:04;;;;;;;7.72;1.65;;;;;;;14.12;43.24;101094.66;7390307;19;20007;-63
2022/11/03 10:23:30;;;;;;;17.40;2.90;;;;;;;14.05;43.48;101092.53;7398421;19;19994;-63
2022/11/03 10:26:17;;;;;;;8.60;2.25;;;;;;;14.21;43.25;101089.78;7396732;19;20439;-63
2022/11/03 10:29:00;;;;;;;9.20;2.03;;;;;;;14.22;43.38;101090.56;7395914;19;20682;-63
2022/11/03 10:31:37;;;;;;;10.32;2.13;;;;;;;14.18;43.28;101086.94;7396176;19;20003;-64
2022/11/03 10:34:05;;;;;;;10.25;2.00;;;;;;;14.14;43.46;101088.81;7397039;19;19991;-63
2022/11/03 10:36:32;;;;;;;10.00;2.30;;;;;;;14.22;43.29;101088.59;7398150;19;19994;-63
2022/11/03 10:39:00;;;;;;;9.57;2.38;;;;;;;14.22;43.54;101083.09;7397397;19;20006;-63
2022/11/03 10:41:30;;;;;;;9.32;2.10;;;;;;;14.39;43.05;101073.66;7395216;19;20017;-63
2022/11/03 10:44:04;;;;;;;17.48;2.80;;;;;;;14.35;42.90;101072.78;7396660;19;19999;-63
2022/11/03 10:46:30;;;;;;;;;;;;;;;14.15;42.99;101066.50;7395113;19;20018;-63
2022/11/03 10:49:09;;;;;;;6.70;1.98;;;;;;;14.05;43.39;101056.09;7396951;19;19915;-63
2022/11/03 10:51:35;;;;;;;12.18;2.28;;;;;;;14.27;43.19;101060.06;7394763;19;20003;-63
2022/11/03 10:54:02;;;;;;;11.10;2.50;;;;;;;14.16;43.22;101048.06;7395122;19;20011;-63
2022/11/03 10:56:29;;;;;;;7.88;2.20;;;;;;;14.29;43.20;101041.28;7396695;19;20016;-64
2022/11/03 10:58:56;;;;;;;10.18;1.98;;;;;;;14.34;42.90;101043.72;7396984;19;20327;-64
2022/11/03 11:01:22;;;;;;;9.25;2.33;;;;;;;14.34;43.18;101043.72;7395615;19;19999;-64
2022/11/03 11:03:48;;;;;;;13.18;2.55;;;;;;;14.40;42.81;101038.78;7393759;19;20010;-64
2022/11/03 11:06:28;;;;;;;10.77;2.22;;;;;;;14.53;42.53;101033.91;7395379;19;20020;-64
2022/11/03 11:09:00;;;;;;;8.65;2.40;;;;;;;14.54;42.59;101030.00;7395890;19;20006;-63
2022/11/03 11:11:27;;;;;;;10.02;1.73;;;;;;;14.63;42.47;101023.13;7393774;19;20038;-63
2022/11/03 11:14:24;;;;;;;10.40;2.40;;;;;;;14.58;42.73;101008.91;7396188;19;20070;-62
2022/11/03 11:16:52;;;;;;;7.95;2.17;;;;;;;14.57;42.56;101007.31;7395743;19;20082;-63
2022/11/03 11:19:19;;;;;;;9.88;2.20;;;;;;;14.48;42.83;100991.06;7395423;19;20073;-62
2022/11/03 11:21:46;;;;;;;8.07;2.15;;;;;;;14.42;42.85;100989.75;7393838;19;19999;-62
2022/11/03 11:24:12;;;;;;;7.85;2.28;;;;;;;14.37;43.02;100982.59;7396242;19;20002;-63
2022/11/03 11:26:39;;;;;;;10.95;1.90;;;;;;;14.32;43.18;100980.16;7393183;19;20010;-62
2022/11/03 11:29:07;;;;;;;12.90;1.92;;;;;;;14.48;42.59;100971.03;7395743;19;20083;-64
2022/11/03 11:32:27;;;;;;;8.80;1.92;;;;;;;14.50;42.40;100963.25;7392682;19;20082;-61
2022/11/03 11:34:53;;;;;;;9.80;2.47;;;;;;;14.59;42.68;100961.03;7393683;19;20022;-60
2022/11/03 11:37:18;;;;;;;10.07;2.58;;;;;;;14.75;42.33;100953.50;7394565;19;20078;-61
2022/11/03 11:39:44;;;;;;;7.88;2.17;;;;;;;14.82;41.93;100950.09;7394636;19;20003;-60
2022/11/03 11:42:14;;;;;;;11.63;2.00;;;;;;;14.84;42.16;100946.97;7393209;19;20014;-60
2022/11/03 11:44:44;;;;;;;9.80;2.03;;;;;;;14.77;42.23;100934.69;7393088;19;20006;-60
2022/11/03 11:47:22;;;;;;;10.75;1.88;;;;;;;14.71;42.34;100932.59;7392233;19;19999;-59
2022/11/03 11:49:59;;;;;;;9.50;2.45;;;;;;;14.67;42.47;100927.03;7394279;19;20003;-60
2022/11/03 11:52:26;;;;;;;8.20;2.00;;;;;;;14.69;42.25;100910.97;7392850;19;19999;-61
2022/11/03 11:54:52;;;;;;;11.88;2.45;;;;;;;14.70;42.66;100906.31;7394079;19;20002;-59
2022/11/03 11:57:20;;;;;;;8.27;2.28;;;;;;;14.61;42.37;100907.34;7395258;19;19999;-59
2022/11/03 11:59:47;;;;;;;10.23;2.10;;;;;;;14.67;42.07;100918.81;7393870;19;20010;-61